Time;durP1;ratioP1;P1;durP2;ratioP2;P2;SDS_P1;SDS_P2;PMS_P1;PMS_P2;Temp;Humidity;BMP_temperature;BMP_pressure;BME280_temperature;BME280_humidity;BME280_pressure;Samples;Min_cycle;Max_cycle;Signal;HPM_P1;HPM_P2
2023/11/01 00:02:12;;;;;;;4.45;0.75;;;;;;;;;;5047587;28;20388;-60
2023/11/01 00:04:37;;;;;;;5.23;1.10;;;;;;;;;;5051856;28;20095;-60
2023/11/01 00:07:03;;;;;;;3.20;0.90;;;;;;;;;;5053481;28;20020;-60
2023/11/01 00:09:28;;;;;;;3.90;1.00;;;;;;;;;;5051762;28;20044;-61
2023/11/01 00:11:53;;;;;;;3.87;1.20;;;;;;;;;;5051991;28;20083;-61
2023/11/01 00:14:18;;;;;;;4.70;1.37;;;;;;;;;;5053144;28;20039;-61
2023/11/01 00:16:44;;;;;;;3.25;0.90;;;;;;;;;;5070774;28;20372;-62
2023/11/01 00:19:09;;;;;;;2.90;1.00;;;;;;;;;;5050935;28;20112;-61
2023/11/01 00:21:34;;;;;;;2.20;0.80;;;;;;;;;;5053259;28;20021;-61
2023/11/01 00:23:59;;;;;;;2.83;0.90;;;;;;;;;;5070490;28;20048;-61
2023/11/01 00:26:25;;;;;;;3.63;0.95;;;;;;;;;;5068975;28;20402;-61
2023/11/01 00:28:50;;;;;;;4.60;1.03;;;;;;;;;;5053037;28;20029;-61
2023/11/01 00:31:15;;;;;;;3.23;0.90;;;;;;;;;;5052754;28;20017;-60
2023/11/01 00:33:40;;;;;;;2.53;0.77;;;;;;;;;;5061710;28;20025;-61
2023/11/01 00:36:06;;;;;;;3.27;0.97;;;;;;;;;;5056992;28;20020;-60
2023/11/01 00:38:35;;;;;;;5.60;0.90;;;;;;;;;;5057762;28;20397;-60
2023/11/01 00:41:02;;;;;;;4.63;0.98;;;;;;;;;;5051980;28;20470;-60
2023/11/01 00:43:28;;;;;;;2.85;1.00;;;;;;;;;;5044057;28;20017;-61
2023/11/01 00:45:53;;;;;;;4.25;0.95;;;;;;;;;;5054487;28;20100;-60
2023/11/01 00:48:18;;;;;;;3.55;0.82;;;;;;;;;;5063688;28;20057;-60
2023/11/01 00:50:45;;;;;;;4.40;1.10;;;;;;;;;;5051278;28;20092;-59
2023/11/01 00:53:10;;;;;;;4.20;0.85;;;;;;;;;;5061558;28;20113;-61
2023/11/01 00:55:35;;;;;;;4.88;1.08;;;;;;;;;;5071421;28;20140;-61
2023/11/01 00:58:00;;;;;;;3.83;1.10;;;;;;;;;;5061063;28;20021;-60
2023/11/01 01:00:25;;;;;;;4.67;1.10;;;;;;;;;;5058760;28;20019;-61
2023/11/01 01:02:51;;;;;;;6.22;1.10;;;;;;;;;;5051602;28;20523;-61
2023/11/01 01:05:16;;;;;;;3.88;0.90;;;;;;;;;;5052362;28;20059;-62
2023/11/01 01:07:41;;;;;;;7.00;1.20;;;;;;;;;;5049546;28;20086;-61
2023/11/01 01:10:07;;;;;;;5.07;1.00;;;;;;;;;;5069491;28;20608;-59
2023/11/01 01:12:32;;;;;;;3.47;1.08;;;;;;;;;;5072373;28;20561;-61
2023/11/01 01:14:57;;;;;;;5.60;1.03;;;;;;;;;;5065257;28;20021;-61
2023/11/01 01:17:22;;;;;;;4.33;1.00;;;;;;;;;;5054153;28;20108;-59
2023/11/01 01:19:48;;;;;;;5.07;0.90;;;;;;;;;;5058896;28;20954;-61
2023/11/01 01:22:13;;;;;;;4.27;1.00;;;;;;;;;;5076382;28;20567;-60
2023/11/01 01:24:38;;;;;;;3.80;0.80;;;;;;;;;;5059453;28;20122;-62
2023/11/01 01:27:03;;;;;;;2.83;0.90;;;;;;;;;;5051526;28;20017;-61
2023/11/01 01:29:28;;;;;;;2.90;1.00;;;;;;;;;;5051419;28;20032;-59
2023/11/01 01:31:54;;;;;;;3.10;1.00;;;;;;;;;;5057425;28;20027;-61
2023/11/01 01:34:19;;;;;;;4.17;0.90;;;;;;;;;;5070784;28;20079;-59
2023/11/01 01:36:44;;;;;;;4.35;0.90;;;;;;;;;;5059675;28;20017;-61
2023/11/01 01:39:09;;;;;;;5.10;0.93;;;;;;;;;;5055715;28;20033;-61
2023/11/01 01:41:34;;;;;;;3.85;1.10;;;;;;;;;;5065740;28;20094;-60
2023/11/01 01:44:00;;;;;;;3.60;0.90;;;;;;;;;;5075851;28;20017;-61
2023/11/01 01:46:27;;;;;;;5.03;0.95;;;;;;;;;;5067661;28;20423;-61
2023/11/01 01:48:52;;;;;;;3.38;0.90;;;;;;;;;;5051700;28;20465;-61
2023/11/01 01:51:17;;;;;;;5.85;1.10;;;;;;;;;;5055461;28;20092;-60
2023/11/01 01:53:44;;;;;;;4.23;1.00;;;;;;;;;;5053336;28;20021;-58
2023/11/01 01:56:09;;;;;;;;;;;;;;;;;;5052609;28;20029;-61
2023/11/01 01:58:36;;;;;;;2.85;0.75;;;;;;;;;;5067396;28;19904;-61
2023/11/01 02:01:01;;;;;;;;;;;;;;;;;;5065351;28;20013;-60
2023/11/01 02:03:26;;;;;;;3.30;0.80;;;;;;;;;;5051651;28;19999;-60
2023/11/01 02:05:52;;;;;;;5.17;1.10;;;;;;;;;;5050961;28;20083;-60
2023/11/01 02:08:17;;;;;;;3.03;1.10;;;;;;;;;;5055742;28;20091;-62
2023/11/01 02:10:42;;;;;;;3.57;1.00;;;;;;;;;;5070160;28;20346;-62
2023/11/01 02:13:11;;;;;;;3.80;0.90;;;;;;;;;;5070747;28;20051;-62
2023/11/01 02:15:36;;;;;;;4.47;0.80;;;;;;;;;;5065965;28;20468;-60
2023/11/01 02:18:01;;;;;;;4.57;2.17;;;;;;;;;;5050221;28;20045;-61
2023/11/01 02:20:27;;;;;;;3.73;0.93;;;;;;;;;;5060064;28;20028;-60
2023/11/01 02:22:55;;;;;;;6.15;1.02;;;;;;;;;;5062978;28;20033;-58
2023/11/01 02:25:21;;;;;;;4.40;0.80;;;;;;;;;;5050080;28;20116;-60
2023/11/01 02:27:46;;;;;;;2.67;0.80;;;;;;;;;;5050179;28;20100;-61
2023/11/01 02:30:16;;;;;;;2.78;1.35;;;;;;;;;;5049267;28;20485;-62
2023/11/01 02:32:42;;;;;;;3.38;1.05;;;;;;;;;;5052906;28;20052;-62
2023/11/01 02:35:07;;;;;;;2.88;0.90;;;;;;;;;;5057797;28;20503;-59
2023/11/01 02:37:33;;;;;;;3.93;0.90;;;;;;;;;;5070069;28;20387;-61
2023/11/01 02:39:58;;;;;;;4.25;1.83;;;;;;;;;;5049283;28;20113;-59
2023/11/01 02:42:23;;;;;;;2.90;1.20;;;;;;;;;;5047287;28;20096;-62
2023/11/01 02:44:48;;;;;;;3.30;0.80;;;;;;;;;;5049838;28;20025;-61
2023/11/01 02:47:13;;;;;;;5.80;0.83;;;;;;;;;;5049994;28;20020;-60
2023/11/01 02:49:39;;;;;;;3.20;0.80;;;;;;;;;;5065176;28;20032;-60
2023/11/01 02:52:04;;;;;;;4.40;0.83;;;;;;;;;;5059528;28;20123;-61
2023/11/01 02:54:29;;;;;;;3.28;1.02;;;;;;;;;;5057414;28;20469;-60
2023/11/01 02:56:57;;;;;;;3.08;0.95;;;;;;;;;;5049577;28;20021;-61
2023/11/01 02:59:22;;;;;;;3.75;1.13;;;;;;;;;;5049755;28;20100;-60
2023/11/01 03:01:49;;;;;;;2.60;0.80;;;;;;;;;;5063695;28;20100;-60
2023/11/01 03:04:14;;;;;;;5.30;1.05;;;;;;;;;;5069351;28;20533;-59
2023/11/01 03:06:39;;;;;;;3.77;0.87;;;;;;;;;;5050443;28;20103;-59
2023/11/01 03:09:05;;;;;;;3.77;1.13;;;;;;;;;;5051475;28;20017;-62
2023/11/01 03:11:30;;;;;;;2.75;0.85;;;;;;;;;;5047793;28;20511;-60
2023/11/01 03:13:56;;;;;;;3.90;1.30;;;;;;;;;;5050907;28;20032;-62
2023/11/01 03:16:21;;;;;;;3.53;0.80;;;;;;;;;;5049837;28;20442;-60
2023/11/01 03:18:46;;;;;;;4.85;3.97;;;;;;;;;;5062579;28;20084;-62
2023/11/01 03:21:11;;;;;;;3.07;1.27;;;;;;;;;;5060639;28;20253;-61
2023/11/01 03:23:36;;;;;;;3.40;0.87;;;;;;;;;;5070765;28;20070;-60
2023/11/01 03:26:02;;;;;;;2.37;1.07;;;;;;;;;;5054095;28;20479;-61
2023/11/01 03:28:28;;;;;;;3.50;2.35;;;;;;;;;;5052438;28;20016;-61
2023/11/01 03:30:53;;;;;;;4.93;4.20;;;;;;;;;;5051542;28;20048;-61
2023/11/01 03:33:19;;;;;;;4.10;1.47;;;;;;;;;;5053347;28;20052;-60
2023/11/01 03:35:44;;;;;;;3.28;0.88;;;;;;;;;;5066726;28;20107;-61
2023/11/01 03:38:09;;;;;;;2.17;0.77;;;;;;;;;;5062329;28;20021;-60
2023/11/01 03:40:35;;;;;;;2.87;1.63;;;;;;;;;;5053522;28;20048;-61
2023/11/01 03:43:04;;;;;;;2.88;0.93;;;;;;;;;;5053769;28;20021;-62
2023/11/01 03:45:29;;;;;;;3.67;1.35;;;;;;;;;;5053602;28;20063;-60
2023/11/01 03:47:54;;;;;;;3.40;1.20;;;;;;;;;;5062581;28;20013;-61
2023/11/01 03:50:19;;;;;;;3.83;1.30;;;;;;;;;;5061012;28;20029;-60
2023/11/01 03:52:44;;;;;;;9.37;8.70;;;;;;;;;;5073744;28;20369;-60
2023/11/01 03:55:11;;;;;;;4.33;1.47;;;;;;;;;;5059801;28;20017;-60
2023/11/01 03:57:37;;;;;;;3.65;1.33;;;;;;;;;;5053506;28;20086;-62
2023/11/01 04:00:02;;;;;;;3.55;1.70;;;;;;;;;;5057500;28;20016;-60
2023/11/01 04:02:28;;;;;;;2.60;0.90;;;;;;;;;;5051652;28;20040;-61
2023/11/01 04:04:53;;;;;;;5.30;1.98;;;;;;;;;;5059804;28;20071;-61
2023/11/01 04:07:19;;;;;;;3.03;0.95;;;;;;;;;;5072702;28;20378;-61
2023/11/01 04:09:44;;;;;;;7.97;7.03;;;;;;;;;;5069052;28;20365;-61
2023/11/01 04:12:09;;;;;;;2.85;0.98;;;;;;;;;;5065760;28;20044;-60
2023/11/01 04:14:34;;;;;;;3.50;1.00;;;;;;;;;;5052924;28;20059;-60
2023/11/01 04:16:59;;;;;;;3.22;1.10;;;;;;;;;;5052492;28;20388;-61
2023/11/01 04:19:25;;;;;;;3.50;2.83;;;;;;;;;;5056041;28;20071;-62
2023/11/01 04:21:50;;;;;;;27.53;25.77;;;;;;;;;;5076172;28;20020;-61
2023/11/01 04:24:15;;;;;;;3.47;1.00;;;;;;;;;;5072683;28;20016;-60
2023/11/01 04:26:41;;;;;;;5.00;4.50;;;;;;;;;;5063948;28;20032;-61
2023/11/01 04:29:06;;;;;;;14.77;13.80;;;;;;;;;;5084164;28;20016;-61
2023/11/01 04:31:33;;;;;;;3.80;1.05;;;;;;;;;;5083825;28;20055;-61
2023/11/01 04:33:58;;;;;;;;;;;;;;;;;;5051221;28;20085;-61
2023/11/01 04:36:24;;;;;;;6.43;3.90;;;;;;;;;;5065045;28;19912;-62
2023/11/01 04:38:51;;;;;;;9.32;8.52;;;;;;;;;;5068816;28;20021;-60
2023/11/01 04:41:16;;;;;;;19.55;18.35;;;;;;;;;;5061094;28;20092;-61
2023/11/01 04:43:42;;;;;;;4.53;3.80;;;;;;;;;;5051456;28;20452;-60
2023/11/01 04:46:08;;;;;;;5.87;2.27;;;;;;;;;;5052776;28;20468;-61
2023/11/01 04:48:34;;;;;;;5.25;3.20;;;;;;;;;;5052147;28;20534;-59
2023/11/01 04:50:59;;;;;;;5.00;4.60;;;;;;;;;;5050409;28;20025;-59
2023/11/01 04:53:24;;;;;;;3.35;1.35;;;;;;;;;;5049783;28;20113;-61
2023/11/01 04:55:50;;;;;;;12.37;11.43;;;;;;;;;;5068762;28;20399;-62
2023/11/01 04:58:16;;;;;;;3.33;0.95;;;;;;;;;;5071859;28;20101;-61
2023/11/01 05:00:41;;;;;;;8.27;7.57;;;;;;;;;;5051654;28;20532;-62
2023/11/01 05:03:06;;;;;;;3.13;1.23;;;;;;;;;;5057608;28;20090;-60
2023/11/01 05:05:32;;;;;;;5.57;5.07;;;;;;;;;;5062477;28;20039;-61
2023/11/01 05:07:57;;;;;;;5.28;4.78;;;;;;;;;;5070012;28;20023;-61
2023/11/01 05:10:22;;;;;;;4.83;1.80;;;;;;;;;;5066623;28;20607;-61
2023/11/01 05:12:47;;;;;;;5.43;4.93;;;;;;;;;;5060705;28;20036;-61
2023/11/01 05:15:12;;;;;;;7.50;6.95;;;;;;;;;;5044446;28;20110;-62
2023/11/01 05:17:38;;;;;;;13.55;12.60;;;;;;;;;;5051323;28;20020;-61
2023/11/01 05:20:04;;;;;;;13.67;12.83;;;;;;;;;;5052272;28;20035;-60
2023/11/01 05:22:29;;;;;;;23.73;22.27;;;;;;;;;;5055393;28;20103;-62
2023/11/01 05:24:54;;;;;;;11.25;10.45;;;;;;;;;;5055948;28;20551;-62
2023/11/01 05:27:19;;;;;;;50.47;47.88;;;;;;;;;;5059665;28;20021;-61
2023/11/01 05:29:45;;;;;;;8.43;7.72;;;;;;;;;;5046919;28;20025;-61
2023/11/01 05:32:10;;;;;;;48.83;46.20;;;;;;;;;;5050851;28;20076;-60
2023/11/01 05:34:36;;;;;;;12.18;11.35;;;;;;;;;;5048261;28;20065;-60
2023/11/01 05:37:03;;;;;;;5.20;4.68;;;;;;;;;;5047255;28;20101;-62
2023/11/01 05:39:30;;;;;;;2.83;1.67;;;;;;;;;;5059723;28;20025;-61
2023/11/01 05:41:55;;;;;;;4.38;1.40;;;;;;;;;;5053155;28;20392;-61
2023/11/01 05:44:20;;;;;;;5.80;5.25;;;;;;;;;;5067134;28;20035;-62
2023/11/01 05:46:45;;;;;;;7.55;6.93;;;;;;;;;;5059777;28;20032;-61
2023/11/01 05:49:10;;;;;;;6.55;5.97;;;;;;;;;;5047381;28;20074;-62
2023/11/01 05:51:36;;;;;;;22.70;21.40;;;;;;;;;;5045861;28;20085;-60
2023/11/01 05:54:01;;;;;;;24.30;22.80;;;;;;;;;;5058200;28;20506;-61
2023/11/01 05:56:27;;;;;;;52.80;50.07;;;;;;;;;;5064084;28;20025;-60
2023/11/01 05:58:52;;;;;;;24.08;22.63;;;;;;;;;;5048762;28;20051;-59
2023/11/01 06:01:20;;;;;;;7.65;6.95;;;;;;;;;;5049102;28;20017;-60
2023/11/01 06:03:50;;;;;;;2.85;1.35;;;;;;;;;;5041281;28;20472;-62
2023/11/01 06:06:15;;;;;;;6.10;5.50;;;;;;;;;;5041128;28;20104;-60
2023/11/01 06:08:40;;;;;;;10.03;9.30;;;;;;;;;;5033466;28;20480;-61
2023/11/01 06:11:07;;;;;;;6.80;1.37;;;;;;;;;;5045514;28;20024;-61
2023/11/01 06:13:32;;;;;;;5.18;2.47;;;;;;;;;;5039953;28;20036;-60
2023/11/01 06:16:04;;;;;;;25.95;24.45;;;;;;;;;;5040711;28;20017;-60
2023/11/01 06:18:30;;;;;;;17.52;16.45;;;;;;;;;;5040758;28;20095;-64
2023/11/01 06:20:56;;;;;;;8.45;7.82;;;;;;;;;;5044119;28;20033;-60
2023/11/01 06:23:22;;;;;;;16.90;15.70;;;;;;;;;;5040939;28;20595;-62
2023/11/01 06:25:47;;;;;;;42.40;40.00;;;;;;;;;;5052044;28;20083;-61
2023/11/01 06:28:12;;;;;;;19.45;18.15;;;;;;;;;;5055433;28;20032;-61
2023/11/01 06:30:38;;;;;;;18.40;17.25;;;;;;;;;;5063110;28;20012;-60
2023/11/01 06:33:03;;;;;;;9.03;8.20;;;;;;;;;;5058853;28;20096;-61
2023/11/01 06:35:29;;;;;;;4.68;1.95;;;;;;;;;;5059845;28;20088;-60
2023/11/01 06:37:54;;;;;;;6.07;3.20;;;;;;;;;;5054055;28;20030;-60
2023/11/01 06:40:19;;;;;;;13.60;12.60;;;;;;;;;;5030016;28;20159;-59
2023/11/01 06:42:44;;;;;;;4.67;3.87;;;;;;;;;;5030183;28;20017;-60
2023/11/01 06:45:11;;;;;;;27.80;26.17;;;;;;;;;;5029895;28;20105;-59
2023/11/01 06:47:36;;;;;;;8.00;7.30;;;;;;;;;;5041722;28;20029;-59
2023/11/01 06:50:01;;;;;;;18.07;16.93;;;;;;;;;;5049232;28;20017;-57
2023/11/01 06:52:26;;;;;;;45.43;42.73;;;;;;;;;;5048624;28;20014;-59
2023/11/01 06:54:52;;;;;;;18.00;16.80;;;;;;;;;;5048588;28;20400;-60
2023/11/01 06:57:17;;;;;;;8.90;8.10;;;;;;;;;;5050644;28;20039;-61
2023/11/01 06:59:42;;;;;;;17.48;16.38;;;;;;;;;;5059286;28;20059;-60
2023/11/01 07:02:08;;;;;;;7.57;6.88;;;;;;;;;;5067522;28;20063;-60
2023/11/01 07:04:33;;;;;;;5.20;2.03;;;;;;;;;;5053138;28;20082;-58
2023/11/01 07:06:58;;;;;;;5.53;4.50;;;;;;;;;;5053578;28;20021;-61
2023/11/01 07:09:24;;;;;;;7.10;5.13;;;;;;;;;;5050093;28;20029;-59
2023/11/01 07:11:49;;;;;;;5.75;3.85;;;;;;;;;;5052952;28;20040;-60
2023/11/01 07:14:14;;;;;;;3.97;1.63;;;;;;;;;;5051202;28;20041;-58
2023/11/01 07:16:41;;;;;;;9.73;9.05;;;;;;;;;;5053455;28;20055;-60
2023/11/01 07:19:06;;;;;;;22.63;21.20;;;;;;;;;;5049126;28;20064;-60
2023/11/01 07:21:31;;;;;;;13.93;13.03;;;;;;;;;;5051308;28;20064;-61
2023/11/01 07:23:56;;;;;;;36.30;34.30;;;;;;;;;;5053708;28;20053;-60
2023/11/01 07:26:21;;;;;;;8.43;7.57;;;;;;;;;;5054006;28;20095;-61
2023/11/01 07:28:47;;;;;;;12.30;11.40;;;;;;;;;;5051085;28;20100;-62
2023/11/01 07:31:13;;;;;;;14.10;13.07;;;;;;;;;;5052687;28;20040;-61
2023/11/01 07:33:38;;;;;;;17.00;15.95;;;;;;;;;;5063777;28;20032;-63
2023/11/01 07:36:04;;;;;;;5.23;1.30;;;;;;;;;;5080091;28;20069;-62
2023/11/01 07:38:29;;;;;;;5.13;2.15;;;;;;;;;;5071224;28;20799;-61
2023/11/01 07:40:54;;;;;;;32.80;30.83;;;;;;;;;;5062892;28;20480;-68
2023/11/01 07:43:20;;;;;;;9.63;8.83;;;;;;;;;;5062358;28;20423;-61
2023/11/01 07:45:45;;;;;;;6.93;6.30;;;;;;;;;;5050575;28;20041;-61
2023/11/01 07:48:10;;;;;;;11.20;10.37;;;;;;;;;;5059248;28;20021;-60
2023/11/01 07:50:38;;;;;;;8.13;7.43;;;;;;;;;;5049653;28;20429;-62
2023/11/01 07:53:03;;;;;;;8.77;7.97;;;;;;;;;;5055438;28;20090;-62
2023/11/01 07:55:29;;;;;;;34.93;33.00;;;;;;;;;;5065209;28;20025;-62
2023/11/01 07:57:54;;;;;;;;;;;;;;;;;;5068728;28;20384;-61
2023/11/01 08:00:20;;;;;;;19.13;17.95;;;;;;;;;;5066026;28;21637;-62
2023/11/01 08:02:45;;;;;;;31.10;29.10;;;;;;;;;;5047617;28;20059;-61
2023/11/01 08:05:10;;;;;;;5.03;4.13;;;;;;;;;;5052440;28;20048;-61
2023/11/01 08:07:36;;;;;;;25.03;23.50;;;;;;;;;;5050487;28;20020;-60
2023/11/01 08:10:01;;;;;;;16.67;15.52;;;;;;;;;;5058565;28;20024;-61
2023/11/01 08:12:27;;;;;;;25.33;23.83;;;;;;;;;;5055661;28;20028;-59
2023/11/01 08:14:52;;;;;;;19.70;18.43;;;;;;;;;;5053947;28;20031;-62
2023/11/01 08:17:17;;;;;;;3.50;1.10;;;;;;;;;;5052565;28;20029;-62
2023/11/01 08:19:43;;;;;;;16.23;15.10;;;;;;;;;;5052313;28;20469;-63
2023/11/01 08:22:12;;;;;;;7.43;5.13;;;;;;;;;;5047587;28;20100;-61
2023/11/01 08:24:38;;;;;;;22.45;21.13;;;;;;;;;;5051153;28;20025;-62
2023/11/01 08:27:03;;;;;;;11.55;10.75;;;;;;;;;;5048473;28;20021;-61
2023/11/01 08:29:28;;;;;;;6.83;4.50;;;;;;;;;;5052190;28;20031;-61
2023/11/01 08:31:54;;;;;;;21.70;20.43;;;;;;;;;;5053131;28;20768;-61
2023/11/01 08:34:19;;;;;;;10.40;9.63;;;;;;;;;;5055266;28;20016;-61
2023/11/01 08:36:45;;;;;;;85.10;80.67;;;;;;;;;;5054147;28;20116;-63
2023/11/01 08:39:10;;;;;;;5.03;2.60;;;;;;;;;;5052714;28;20031;-60
2023/11/01 08:41:35;;;;;;;5.78;2.63;;;;;;;;;;5050694;28;20107;-61
2023/11/01 08:44:01;;;;;;;14.43;13.43;;;;;;;;;;5053578;28;20020;-62
2023/11/01 08:46:26;;;;;;;6.90;3.97;;;;;;;;;;5050449;28;20036;-61
2023/11/01 08:48:51;;;;;;;58.87;55.77;;;;;;;;;;5052382;28;20105;-60
2023/11/01 08:51:16;;;;;;;12.33;11.27;;;;;;;;;;5052458;28;20033;-61
2023/11/01 08:53:41;;;;;;;9.80;9.00;;;;;;;;;;5050641;28;20024;-62
2023/11/01 08:56:07;;;;;;;33.43;31.30;;;;;;;;;;5052217;28;20032;-61
2023/11/01 08:58:33;;;;;;;13.15;12.05;;;;;;;;;;5051440;28;20497;-61
2023/11/01 09:00:58;;;;;;;39.53;37.15;;;;;;;;;;5049169;28;20104;-61
2023/11/01 09:03:25;;;;;;;7.57;6.20;;;;;;;;;;5051919;28;20376;-62
2023/11/01 09:05:51;;;;;;;19.23;17.90;;;;;;;;;;5031680;28;20029;-61
2023/11/01 09:08:16;;;;;;;9.43;8.60;;;;;;;;;;5046857;28;20029;-62
2023/11/01 09:10:41;;;;;;;18.27;16.90;;;;;;;;;;5030815;28;20021;-63
2023/11/01 09:13:07;;;;;;;14.65;13.52;;;;;;;;;;5031694;28;20108;-61
2023/11/01 09:15:33;;;;;;;16.13;14.93;;;;;;;;;;5034209;28;20083;-60
2023/11/01 09:17:58;;;;;;;15.43;14.40;;;;;;;;;;5051366;28;20045;-63
2023/11/01 09:20:23;;;;;;;7.90;4.90;;;;;;;;;;5049755;28;20546;-63
2023/11/01 09:22:48;;;;;;;11.80;10.97;;;;;;;;;;5051771;28;20351;-60
2023/11/01 09:25:13;;;;;;;9.03;7.97;;;;;;;;;;5051705;28;20071;-60
2023/11/01 09:27:38;;;;;;;5.10;3.03;;;;;;;;;;5051381;28;20473;-62
2023/11/01 09:30:04;;;;;;;18.67;17.47;;;;;;;;;;5050514;28;20082;-60
2023/11/01 09:32:29;;;;;;;16.35;14.98;;;;;;;;;;5048465;28;20528;-62
2023/11/01 09:34:55;;;;;;;26.37;24.90;;;;;;;;;;5050308;28;20040;-62
2023/11/01 09:37:20;;;;;;;11.23;10.33;;;;;;;;;;5049724;28;20017;-62
2023/11/01 09:39:46;;;;;;;10.70;9.73;;;;;;;;;;5051029;28;20021;-63
2023/11/01 09:42:19;;;;;;;32.97;31.13;;;;;;;;;;5050477;28;20096;-61
2023/11/01 09:44:45;;;;;;;27.42;25.60;;;;;;;;;;5049536;28;20083;-60
2023/11/01 09:47:10;;;;;;;;;;;;;;;;;;5051252;28;20197;-61
2023/11/01 09:49:36;;;;;;;12.05;11.13;;;;;;;;;;5046129;28;19999;-64
2023/11/01 09:52:02;;;;;;;31.00;28.95;;;;;;;;;;5050490;28;20013;-62
2023/11/01 09:54:28;;;;;;;10.50;7.78;;;;;;;;;;5051048;28;20021;-61
2023/11/01 09:56:54;;;;;;;26.43;24.73;;;;;;;;;;5051272;28;20066;-61
2023/11/01 09:59:19;;;;;;;36.85;34.65;;;;;;;;;;5051069;28;20436;-61
2023/11/01 10:01:45;;;;;;;62.08;58.55;;;;;;;;;;5050718;28;20037;-61
2023/11/01 10:04:10;;;;;;;19.07;17.93;;;;;;;;;;5050587;28;20025;-61
2023/11/01 10:06:36;;;;;;;23.70;22.23;;;;;;;;;;5050893;28;20104;-61
2023/11/01 10:09:01;;;;;;;18.60;17.33;;;;;;;;;;5050562;28;20024;-61
2023/11/01 10:11:28;;;;;;;7.57;6.87;;;;;;;;;;5050838;28;20059;-61
2023/11/01 10:13:53;;;;;;;15.05;13.88;;;;;;;;;;5052018;28;20025;-62
2023/11/01 10:16:18;;;;;;;4.53;1.73;;;;;;;;;;5052478;28;20032;-61
2023/11/01 10:18:44;;;;;;;9.18;8.48;;;;;;;;;;5052150;28;20428;-61
2023/11/01 10:21:09;;;;;;;5.13;3.13;;;;;;;;;;5052377;28;20093;-59
2023/11/01 10:23:35;;;;;;;5.28;2.35;;;;;;;;;;5045330;28;20455;-61
2023/11/01 10:26:01;;;;;;;29.63;27.95;;;;;;;;;;5032567;28;20029;-61
2023/11/01 10:28:26;;;;;;;6.65;5.95;;;;;;;;;;5038945;28;20017;-61
2023/11/01 10:30:51;;;;;;;14.73;13.73;;;;;;;;;;5042140;28;20021;-62
2023/11/01 10:33:18;;;;;;;7.97;7.03;;;;;;;;;;5051077;28;20049;-60
2023/11/01 10:35:56;;;;;;;9.98;9.13;;;;;;;;;;5054715;28;20480;-61
2023/11/01 10:38:22;;;;;;;5.22;3.55;;;;;;;;;;5055225;28;20021;-60
2023/11/01 10:40:47;;;;;;;11.77;10.77;;;;;;;;;;5049685;28;20024;-62
2023/11/01 10:43:12;;;;;;;8.10;7.40;;;;;;;;;;5055949;28;20032;-60
2023/11/01 10:45:37;;;;;;;3.78;2.05;;;;;;;;;;5054713;28;20124;-61
2023/11/01 10:48:03;;;;;;;27.33;25.57;;;;;;;;;;5054495;28;20040;-63
2023/11/01 10:50:28;;;;;;;7.60;6.90;;;;;;;;;;5053768;28;20056;-61
2023/11/01 10:52:53;;;;;;;7.80;6.78;;;;;;;;;;5054369;28;20017;-63
2023/11/01 10:55:20;;;;;;;5.18;4.70;;;;;;;;;;5053661;28;20396;-60
2023/11/01 10:57:45;;;;;;;;;;;;;;;;;;5054312;28;20021;-62
2023/11/01 11:00:13;;;;;;;13.10;12.15;;;;;;;;;;5053602;28;20007;-62
2023/11/01 11:02:43;;;;;;;5.15;3.22;;;;;;;;;;5054161;28;20083;-62
2023/11/01 11:05:13;;;;;;;3.13;2.05;;;;;;;;;;5048867;28;20021;-62
2023/11/01 11:07:42;;;;;;;28.17;26.20;;;;;;;;;;5054718;28;20029;-63
2023/11/01 11:10:26;;;;;;;9.60;8.90;;;;;;;;;;5052068;28;20025;-62
2023/11/01 11:13:09;;;;;;;28.27;26.60;;;;;;;;;;5034094;28;20021;-63
2023/11/01 11:15:50;;;;;;;27.48;25.85;;;;;;;;;;5033919;28;20025;-62
2023/11/01 11:18:21;;;;;;;3.38;1.23;;;;;;;;;;5033967;28;20090;-61
2023/11/01 11:20:46;;;;;;;18.58;17.48;;;;;;;;;;5033383;28;20044;-61
2023/11/01 11:23:13;;;;;;;6.05;3.80;;;;;;;;;;5039616;28;20033;-61
2023/11/01 11:25:39;;;;;;;7.82;7.10;;;;;;;;;;5053900;28;20385;-62
2023/11/01 11:28:05;;;;;;;24.10;22.63;;;;;;;;;;5052342;28;20094;-62
2023/11/01 11:30:49;;;;;;;6.95;5.78;;;;;;;;;;5054149;28;20060;-60
2023/11/01 11:33:14;;;;;;;16.98;15.98;;;;;;;;;;5053353;28;20063;-62
2023/11/01 11:35:40;;;;;;;9.75;8.95;;;;;;;;;;5054342;28;20021;-64
2023/11/01 11:38:24;;;;;;;17.88;16.83;;;;;;;;;;5052753;28;20524;-61
2023/11/01 11:41:07;;;;;;;8.90;8.30;;;;;;;;;;5054323;28;20100;-61
2023/11/01 11:43:33;;;;;;;;;;;;;;;;;;5049429;28;20086;-62
2023/11/01 11:46:18;;;;;;;43.75;41.35;;;;;;;;;;5056728;28;19916;-61
2023/11/01 11:48:43;;;;;;;8.38;7.75;;;;;;;;;;5060275;28;20025;-61
2023/11/01 11:51:08;;;;;;;18.30;17.10;;;;;;;;;;5062281;28;20028;-62
2023/11/01 11:53:34;;;;;;;216.70;201.57;;;;;;;;;;5065773;28;20021;-60
2023/11/01 11:55:59;;;;;;;13.50;12.57;;;;;;;;;;5059750;28;20473;-63
2023/11/01 11:58:24;;;;;;;3.13;1.40;;;;;;;;;;5056410;28;20021;-60
2023/11/01 12:00:51;;;;;;;9.43;8.23;;;;;;;;;;5056913;28;20033;-61
2023/11/01 12:03:20;;;;;;;4.35;1.13;;;;;;;;;;5059764;28;20017;-62
2023/11/01 12:05:45;;;;;;;9.52;8.77;;;;;;;;;;5058000;28;20078;-62
2023/11/01 12:08:10;;;;;;;17.03;16.00;;;;;;;;;;5053975;28;20016;-62
2023/11/01 12:10:48;;;;;;;10.30;9.52;;;;;;;;;;5052278;28;20040;-62
2023/11/01 12:13:13;;;;;;;;;;;;;;;;;;5053341;28;20048;-62
2023/11/01 12:15:41;;;;;;;11.50;10.73;;;;;;;;;;5050237;28;19905;-62
2023/11/01 12:18:10;;;;;;;17.35;16.10;;;;;;;;;;5052710;28;20096;-61
2023/11/01 12:20:35;;;;;;;34.00;32.05;;;;;;;;;;5052357;28;20039;-60
2023/11/01 12:23:04;;;;;;;27.65;26.05;;;;;;;;;;5053342;28;20025;-61
2023/11/01 12:25:30;;;;;;;4.35;1.65;;;;;;;;;;5050641;28;20024;-61
2023/11/01 12:27:55;;;;;;;10.00;9.23;;;;;;;;;;5047992;28;20071;-62
2023/11/01 12:30:21;;;;;;;10.40;9.63;;;;;;;;;;5041476;28;20338;-63
2023/11/01 12:32:46;;;;;;;17.48;16.38;;;;;;;;;;5050062;28;20033;-62
2023/11/01 12:35:11;;;;;;;13.18;12.07;;;;;;;;;;5053047;28;20067;-61
2023/11/01 12:37:37;;;;;;;3.17;1.87;;;;;;;;;;5052602;28;20029;-61
2023/11/01 12:40:04;;;;;;;21.23;19.77;;;;;;;;;;5051935;28;20017;-62
2023/11/01 12:42:30;;;;;;;5.80;1.73;;;;;;;;;;5050924;28;20055;-62
2023/11/01 12:44:55;;;;;;;19.00;17.70;;;;;;;;;;5052491;28;20085;-62
2023/11/01 12:47:21;;;;;;;5.47;4.32;;;;;;;;;;5049979;28;20086;-62
2023/11/01 12:49:47;;;;;;;27.73;25.92;;;;;;;;;;5051432;28;20024;-62
2023/11/01 12:52:13;;;;;;;6.57;5.78;;;;;;;;;;5051409;28;20021;-62
2023/11/01 12:54:40;;;;;;;7.22;6.60;;;;;;;;;;5051455;28;20017;-60
2023/11/01 12:57:05;;;;;;;32.85;30.92;;;;;;;;;;5051723;28;20091;-62
2023/11/01 12:59:30;;;;;;;7.47;6.33;;;;;;;;;;5051572;28;20017;-62
2023/11/01 13:01:55;;;;;;;26.33;24.57;;;;;;;;;;5046768;28;20021;-61
2023/11/01 13:04:21;;;;;;;24.17;22.33;;;;;;;;;;5051591;28;20016;-62
2023/11/01 13:06:46;;;;;;;12.60;11.43;;;;;;;;;;5051499;28;20033;-62
2023/11/01 13:09:14;;;;;;;36.55;34.30;;;;;;;;;;5046504;28;20021;-61
2023/11/01 13:11:40;;;;;;;25.27;23.60;;;;;;;;;;5048659;28;20051;-62
2023/11/01 13:14:06;;;;;;;14.32;13.00;;;;;;;;;;5051302;28;20017;-61
2023/11/01 13:16:31;;;;;;;32.67;30.80;;;;;;;;;;5051489;28;20057;-62
2023/11/01 13:18:56;;;;;;;9.65;8.80;;;;;;;;;;5051264;28;20496;-61
2023/11/01 13:21:21;;;;;;;16.67;15.50;;;;;;;;;;5051580;28;20029;-61
2023/11/01 13:23:46;;;;;;;5.40;2.03;;;;;;;;;;5051171;28;20056;-62
2023/11/01 13:26:12;;;;;;;3.80;2.08;;;;;;;;;;5047944;28;20106;-61
2023/11/01 13:28:37;;;;;;;5.20;2.80;;;;;;;;;;5051304;28;20024;-61
2023/11/01 13:31:02;;;;;;;15.45;14.35;;;;;;;;;;5051436;28;20361;-60
2023/11/01 13:33:27;;;;;;;22.23;20.67;;;;;;;;;;5051380;28;20017;-60
2023/11/01 13:35:53;;;;;;;13.93;12.85;;;;;;;;;;5051914;28;20036;-62
2023/11/01 13:38:18;;;;;;;32.50;30.60;;;;;;;;;;5052751;28;20027;-60
2023/11/01 13:40:43;;;;;;;18.92;17.63;;;;;;;;;;5049451;28;20374;-60
2023/11/01 13:43:09;;;;;;;36.30;33.80;;;;;;;;;;5052329;28;20013;-61
2023/11/01 13:45:34;;;;;;;9.07;5.05;;;;;;;;;;5053303;28;20033;-60
2023/11/01 13:47:59;;;;;;;11.82;10.93;;;;;;;;;;5046030;28;20333;-61
2023/11/01 13:50:25;;;;;;;19.55;18.23;;;;;;;;;;5050200;28;20028;-61
2023/11/01 13:52:50;;;;;;;10.05;6.70;;;;;;;;;;5050738;28;20029;-61
2023/11/01 13:55:15;;;;;;;22.67;21.20;;;;;;;;;;5050347;28;20481;-62
2023/11/01 13:57:40;;;;;;;13.02;11.93;;;;;;;;;;5049767;28;20017;-60
2023/11/01 14:00:06;;;;;;;9.37;6.37;;;;;;;;;;5050344;28;20104;-61
2023/11/01 14:02:32;;;;;;;6.47;5.35;;;;;;;;;;5049735;28;20028;-62
2023/11/01 14:04:57;;;;;;;24.45;23.00;;;;;;;;;;5050945;28;20100;-60
2023/11/01 14:07:22;;;;;;;9.88;7.82;;;;;;;;;;5051115;28;20032;-63
2023/11/01 14:09:48;;;;;;;16.05;14.85;;;;;;;;;;5050541;28;20449;-61
2023/11/01 14:12:13;;;;;;;7.82;6.47;;;;;;;;;;5050881;28;20017;-60
2023/11/01 14:14:38;;;;;;;19.43;18.20;;;;;;;;;;5049516;28;20433;-62
2023/11/01 14:17:05;;;;;;;48.97;46.33;;;;;;;;;;5048259;28;20527;-61
2023/11/01 14:19:30;;;;;;;;;;;;;;;;;;5049915;28;20035;-61
2023/11/01 14:21:55;;;;;;;9.40;7.00;;;;;;;;;;5050552;28;19909;-60
2023/11/01 14:24:20;;;;;;;8.40;6.27;;;;;;;;;;5050216;28;20373;-60
2023/11/01 14:26:45;;;;;;;12.80;11.77;;;;;;;;;;5051143;28;20090;-60
2023/11/01 14:29:10;;;;;;;8.37;5.50;;;;;;;;;;5048005;28;20507;-61